Time;durP1;ratioP1;P1;durP2;ratioP2;P2;SDS_P1;SDS_P2;PMS_P1;PMS_P2;Temp;Humidity;BMP_temperature;BMP_pressure;BME280_temperature;BME280_humidity;BME280_pressure;Samples;Min_cycle;Max_cycle;Signal;HPM_P1;HPM_P2
2022/06/22 00:00:50;;;;;;;;;;;23.90;47.90;;;;;;5054173;28;19924;-71
2022/06/22 00:03:17;;;;;;;;;;;23.80;47.70;;;;;;5054626;28;19958;-72
2022/06/22 00:05:47;;;;;;;;;;;23.80;47.80;;;;;;5052667;28;19904;-71
2022/06/22 00:08:16;;;;;;;;;;;23.80;47.80;;;;;;5053118;28;19905;-71
2022/06/22 00:10:57;;;;;;;;;;;23.80;47.60;;;;;;5053201;28;19916;-70
2022/06/22 00:13:24;;;;;;;;;;;23.70;47.50;;;;;;5054420;28;19904;-69
2022/06/22 00:16:01;;;;;;;;;;;23.70;47.80;;;;;;5052925;28;19909;-71
2022/06/22 00:18:45;;;;;;;;;;;23.70;47.90;;;;;;5053126;28;19912;-71
2022/06/22 00:21:10;;;;;;;;;;;23.70;47.90;;;;;;5052610;28;19908;-70
2022/06/22 00:23:39;;;;;;;;;;;23.70;47.90;;;;;;5054150;28;19991;-70
2022/06/22 00:26:16;;;;;;;;;;;23.70;47.80;;;;;;5052694;28;19905;-70
2022/06/22 00:28:51;;;;;;;;;;;23.70;47.80;;;;;;5054233;28;20066;-72
2022/06/22 00:31:35;;;;;;;;;;;23.70;47.70;;;;;;5052626;28;20003;-71
2022/06/22 00:34:00;;;;;;;;;;;23.70;47.70;;;;;;5053643;28;20312;-70
2022/06/22 00:36:28;;;;;;;;;;;23.70;47.60;;;;;;5053941;28;19908;-70
2022/06/22 00:38:53;;;;;;;;;;;23.70;47.50;;;;;;5053645;28;19904;-68
2022/06/22 00:41:24;;;;;;;;;;;23.70;47.70;;;;;;5053690;28;19912;-69
2022/06/22 00:43:51;;;;;;;;;;;23.70;47.60;;;;;;5054018;28;19916;-69
2022/06/22 00:46:22;;;;;;;;;;;23.70;47.70;;;;;;5052231;28;19905;-69
2022/06/22 00:48:50;;;;;;;;;;;23.70;47.60;;;;;;5052460;28;19927;-67
2022/06/22 00:51:17;;;;;;;;;;;23.60;47.50;;;;;;5053566;28;20266;-70
2022/06/22 00:53:49;;;;;;;;;;;23.60;47.20;;;;;;5053676;28;19904;-69
2022/06/22 00:56:44;;;;;;;;;;;23.60;47.50;;;;;;5053722;28;19952;-70
2022/06/22 00:59:23;;;;;;;;;;;23.60;47.60;;;;;;5052646;28;19929;-70
2022/06/22 01:02:00;;;;;;;;;;;23.50;47.60;;;;;;5053273;28;19905;-70
2022/06/22 01:04:30;;;;;;;;;;;23.50;47.60;;;;;;5054129;28;20003;-70
2022/06/22 01:06:59;;;;;;;;;;;23.50;47.70;;;;;;5053899;28;19957;-70
2022/06/22 01:09:34;;;;;;;;;;;23.50;47.50;;;;;;5053708;28;20370;-69
2022/06/22 01:12:18;;;;;;;;;;;23.50;47.30;;;;;;5054490;28;19936;-70
2022/06/22 01:14:55;;;;;;;;;;;23.50;47.40;;;;;;5053852;28;20371;-69
2022/06/22 01:17:27;;;;;;;;;;;23.50;47.50;;;;;;5056782;28;19952;-69
2022/06/22 01:20:01;;;;;;;;;;;23.50;47.50;;;;;;5058028;28;20279;-70
2022/06/22 01:23:02;;;;;;;;;;;23.50;47.40;;;;;;5058629;28;19905;-69
2022/06/22 01:25:28;;;;;;;;;;;23.50;47.50;;;;;;5055760;28;19905;-70
2022/06/22 01:27:53;;;;;;;;;;;23.50;47.30;;;;;;5057435;28;19974;-70
2022/06/22 01:30:28;;;;;;;;;;;23.50;47.20;;;;;;5056573;28;19905;-69
2022/06/22 01:32:53;;;;;;;;;;;23.50;47.30;;;;;;5057860;28;19959;-70
2022/06/22 01:35:22;;;;;;;;;;;23.50;47.30;;;;;;5057640;28;19956;-70
2022/06/22 01:37:48;;;;;;;;;;;23.50;47.30;;;;;;5058070;28;20255;-69
2022/06/22 01:40:13;;;;;;;;;;;23.50;47.30;;;;;;5057508;28;19972;-70
2022/06/22 01:42:49;;;;;;;;;;;23.50;47.30;;;;;;5057411;28;19905;-70
2022/06/22 01:45:24;;;;;;;;;;;23.50;47.20;;;;;;5056832;28;20354;-70
2022/06/22 01:47:53;;;;;;;;;;;23.50;47.30;;;;;;5057326;28;19905;-70
2022/06/22 01:50:28;;;;;;;;;;;23.50;47.40;;;;;;5056202;28;19905;-70
2022/06/22 01:52:57;;;;;;;;;;;23.40;47.20;;;;;;5057590;28;19928;-70
2022/06/22 01:55:42;;;;;;;;;;;23.40;47.20;;;;;;5057074;28;19917;-69
2022/06/22 01:58:12;;;;;;;;;;;23.40;47.30;;;;;;5057481;28;19908;-69
2022/06/22 02:00:38;;;;;;;;;;;23.40;47.30;;;;;;5057367;28;19912;-69
2022/06/22 02:03:09;;;;;;;;;;;23.40;47.30;;;;;;5057310;28;19905;-69
2022/06/22 02:05:45;;;;;;;;;;;23.40;47.30;;;;;;5055959;28;19912;-69
2022/06/22 02:08:17;;;;;;;;;;;23.40;47.40;;;;;;5057393;28;19905;-69
2022/06/22 02:10:42;;;;;;;;;;;23.40;47.40;;;;;;5056107;28;20028;-69
2022/06/22 02:13:17;;;;;;;;;;;23.40;47.50;;;;;;5057128;28;20362;-70
2022/06/22 02:15:46;;;;;;;;;;;23.40;47.40;;;;;;5056763;28;19912;-70
2022/06/22 02:18:16;;;;;;;;;;;23.50;47.50;;;;;;5057238;28;20031;-70
2022/06/22 02:20:42;;;;;;;;;;;23.50;47.50;;;;;;5057628;28;20274;-69
2022/06/22 02:23:28;;;;;;;;;;;23.50;47.30;;;;;;5057020;28;19904;-69
2022/06/22 02:26:00;;;;;;;;;;;23.50;47.30;;;;;;5056013;28;20281;-69
2022/06/22 02:28:25;;;;;;;;;;;23.50;47.30;;;;;;5055423;28;19921;-69
2022/06/22 02:30:51;;;;;;;;;;;23.50;47.40;;;;;;5056779;28;20282;-69
2022/06/22 02:33:17;;;;;;;;;;;23.50;47.30;;;;;;5056476;28;19951;-69
2022/06/22 02:35:43;;;;;;;;;;;23.50;47.30;;;;;;5056358;28;20428;-70
2022/06/22 02:38:10;;;;;;;;;;;23.50;47.30;;;;;;5056437;28;19909;-70
2022/06/22 02:44:29;;;;;;;;;;;23.50;47.30;;;;;;5056353;28;19905;-70
2022/06/22 02:46:11;;;;;;;;;;;23.50;47.30;;;;;;5056677;28;19927;-69
2022/06/22 02:48:37;;;;;;;;;;;23.50;47.30;;;;;;5056530;28;19944;-69
2022/06/22 02:51:08;;;;;;;;;;;23.60;47.30;;;;;;5056274;28;19950;-71
2022/06/22 02:53:37;;;;;;;;;;;23.60;47.30;;;;;;5054965;28;20269;-70
2022/06/22 02:56:05;;;;;;;;;;;23.70;47.20;;;;;;5056277;28;20008;-70
2022/06/22 02:58:32;;;;;;;;;;;23.70;47.20;;;;;;5056043;28;19908;-69
2022/06/22 03:01:05;;;;;;;;;;;23.70;47.20;;;;;;5056073;28;19912;-68
2022/06/22 03:03:33;;;;;;;;;;;23.70;47.10;;;;;;5054884;28;20408;-69
2022/06/22 03:05:58;;;;;;;;;;;23.70;47.10;;;;;;5054676;28;20267;-70
2022/06/22 03:08:24;;;;;;;;;;;23.70;47.00;;;;;;5056088;28;19954;-69
2022/06/22 03:11:01;;;;;;;;;;;23.80;47.10;;;;;;5055330;28;19905;-70
2022/06/22 03:13:29;;;;;;;;;;;23.80;47.00;;;;;;5054804;28;19912;-69
2022/06/22 03:15:55;;;;;;;;;;;23.80;47.00;;;;;;5055700;28;20267;-69
2022/06/22 03:18:24;;;;;;;;;;;23.80;46.90;;;;;;5055865;28;19912;-69
2022/06/22 03:20:51;;;;;;;;;;;23.80;46.90;;;;;;5055622;28;20319;-68
2022/06/22 03:23:20;;;;;;;;;;;23.80;46.90;;;;;;5055561;28;19927;-69
2022/06/22 03:25:49;;;;;;;;;;;23.80;46.90;;;;;;5055661;28;19966;-70
2022/06/22 03:28:20;;;;;;;;;;;23.80;46.90;;;;;;5055568;28;20279;-70
2022/06/22 03:30:58;;;;;;;;;;;23.80;46.90;;;;;;5055732;28;19905;-69
2022/06/22 03:33:30;;;;;;;;;;;23.80;46.90;;;;;;5054310;28;19904;-69
2022/06/22 03:35:59;;;;;;;;;;;23.90;46.90;;;;;;5055207;28;20271;-71
2022/06/22 03:38:27;;;;;;;;;;;23.90;46.90;;;;;;5054941;28;19908;-69
2022/06/22 03:41:05;;;;;;;;;;;23.90;46.80;;;;;;5053851;28;19908;-70
2022/06/22 03:43:54;;;;;;;;;;;24.00;46.80;;;;;;5055359;28;19904;-70
2022/06/22 03:46:34;;;;;;;;;;;23.70;46.60;;;;;;5054873;28;20255;-70
2022/06/22 03:49:06;;;;;;;;;;;24.00;46.60;;;;;;5054969;28;19905;-69
2022/06/22 03:51:38;;;;;;;;;;;24.00;46.60;;;;;;5054988;28;19909;-70
2022/06/22 03:54:09;;;;;;;;;;;24.00;46.70;;;;;;5053802;28;19928;-70
2022/06/22 03:56:41;;;;;;;;;;;24.00;46.60;;;;;;5055146;28;19955;-70
2022/06/22 03:59:07;;;;;;;;;;;24.00;46.60;;;;;;5055403;28;19905;-70
2022/06/22 04:01:33;;;;;;;;;;;24.00;46.70;;;;;;5054934;28;19912;-70
2022/06/22 04:03:59;;;;;;;;;;;23.90;46.60;;;;;;5054798;28;19909;-70
2022/06/22 04:06:27;;;;;;;;;;;24.00;46.70;;;;;;5054796;28;19904;-70
2022/06/22 04:08:52;;;;;;;;;;;23.90;46.70;;;;;;5054819;28;19904;-70
2022/06/22 04:11:31;;;;;;;;;;;24.00;46.70;;;;;;5054781;28;19905;-69
2022/06/22 04:14:00;;;;;;;;;;;24.00;46.70;;;;;;5054725;28;19911;-72
2022/06/22 04:16:27;;;;;;;;;;;24.00;46.60;;;;;;5054807;28;19913;-69
2022/06/22 04:18:58;;;;;;;;;;;24.00;46.60;;;;;;5054552;28;20378;-70
2022/06/22 04:21:27;;;;;;;;;;;24.00;46.60;;;;;;5054558;28;19904;-69
2022/06/22 04:23:55;;;;;;;;;;;24.00;46.60;;;;;;5054565;28;19947;-70
2022/06/22 04:26:47;;;;;;;;;;;23.90;46.60;;;;;;5053210;28;19966;-70
2022/06/22 04:29:16;;;;;;;;;;;24.00;46.70;;;;;;5053987;28;19986;-69
2022/06/22 04:32:02;;;;;;;;;;;24.00;46.70;;;;;;5054363;28;20355;-70
2022/06/22 04:34:54;;;;;;;;;;;24.00;46.70;;;;;;5054012;28;19915;-70
2022/06/22 04:37:23;;;;;;;;;;;24.10;46.70;;;;;;5054000;28;19916;-70
2022/06/22 04:39:50;;;;;;;;;;;24.10;46.60;;;;;;5054342;28;19993;-70
2022/06/22 04:42:16;;;;;;;;;;;24.10;46.50;;;;;;5054266;28;19951;-70
2022/06/22 04:44:48;;;;;;;;;;;24.10;46.60;;;;;;5054212;28;19955;-70
2022/06/22 04:47:22;;;;;;;;;;;24.10;46.50;;;;;;5054122;28;19912;-70
2022/06/22 04:49:50;;;;;;;;;;;24.20;46.50;;;;;;5054082;28;20301;-70
2022/06/22 04:52:19;;;;;;;;;;;24.30;46.50;;;;;;5054080;28;19904;-69
2022/06/22 04:54:48;;;;;;;;;;;24.20;46.40;;;;;;5054402;28;19932;-70
2022/06/22 04:57:32;;;;;;;;;;;24.30;46.40;;;;;;5054068;28;19908;-71
2022/06/22 04:59:59;;;;;;;;;;;24.30;46.40;;;;;;5054047;28;19944;-70
2022/06/22 05:02:27;;;;;;;;;;;24.30;46.40;;;;;;5052495;28;19940;-70
2022/06/22 05:05:03;;;;;;;;;;;24.30;46.40;;;;;;5053649;28;19909;-71
2022/06/22 05:07:47;;;;;;;;;;;24.40;46.40;;;;;;5053352;28;19991;-73
2022/06/22 05:10:24;;;;;;;;;;;24.40;46.40;;;;;;5054005;28;19944;-71
2022/06/22 05:12:53;;;;;;;;;;;24.40;46.50;;;;;;5053687;28;19905;-71
2022/06/22 05:15:25;;;;;;;;;;;24.40;46.40;;;;;;5053816;28;19908;-69
2022/06/22 05:17:50;;;;;;;;;;;24.40;46.30;;;;;;5053845;28;20267;-70
2022/06/22 05:20:21;;;;;;;;;;;24.50;46.30;;;;;;5053512;28;19905;-70
2022/06/22 05:22:48;;;;;;;;;;;24.50;46.30;;;;;;5053976;28;20237;-70
2022/06/22 05:25:13;;;;;;;;;;;24.60;46.40;;;;;;5053386;28;20243;-70
2022/06/22 05:28:02;;;;;;;;;;;24.60;46.40;;;;;;5053488;28;19921;-71
2022/06/22 05:30:48;;;;;;;;;;;24.70;46.40;;;;;;5052703;28;20264;-70
2022/06/22 05:33:16;;;;;;;;;;;24.70;46.30;;;;;;5053155;28;20061;-70
2022/06/22 05:35:45;;;;;;;;;;;24.70;46.20;;;;;;5053403;28;20424;-70
2022/06/22 05:38:10;;;;;;;;;;;24.70;46.10;;;;;;5053438;28;19916;-70
2022/06/22 05:40:37;;;;;;;;;;;24.80;46.20;;;;;;5052427;28;19904;-69
2022/06/22 05:43:04;;;;;;;;;;;24.80;46.00;;;;;;5051601;28;19942;-68
2022/06/22 05:45:31;;;;;;;;;;;24.80;46.10;;;;;;5049536;28;19913;-69
2022/06/22 05:47:56;;;;;;;;;;;24.80;46.30;;;;;;5041900;28;19995;-71
2022/06/22 05:50:36;;;;;;;;;;;24.70;46.40;;;;;;5040997;28;20040;-70
2022/06/22 05:53:05;;;;;;;;;;;24.80;46.40;;;;;;5041503;28;19933;-70
2022/06/22 05:55:40;;;;;;;;;;;24.80;46.50;;;;;;5040520;28;19921;-71
2022/06/22 05:58:12;;;;;;;;;;;24.90;46.50;;;;;;5041503;28;20006;-69
2022/06/22 06:00:47;;;;;;;;;;;25.00;46.40;;;;;;5042688;28;20272;-69
2022/06/22 06:03:12;;;;;;;;;;;25.10;46.30;;;;;;5043398;28;20007;-69
2022/06/22 06:05:40;;;;;;;;;;;25.10;46.20;;;;;;5044051;28;20007;-70
2022/06/22 06:08:13;;;;;;;;;;;25.00;46.10;;;;;;5042798;28;19905;-68
2022/06/22 06:10:40;;;;;;;;;;;25.00;46.10;;;;;;5045792;28;19908;-69
2022/06/22 06:13:14;;;;;;;;;;;25.00;46.30;;;;;;5041843;28;19908;-69
2022/06/22 06:15:40;;;;;;;;;;;24.90;46.30;;;;;;5035441;28;19920;-70
2022/06/22 06:18:09;;;;;;;;;;;24.80;46.40;;;;;;5046626;28;19912;-70
2022/06/22 06:20:37;;;;;;;;;;;24.80;46.50;;;;;;5045683;28;20270;-69
2022/06/22 06:23:06;;;;;;;;;;;24.70;46.60;;;;;;5045328;28;19912;-69
2022/06/22 06:28:22;;;;;;;;;;;24.70;46.80;;;;;;5036324;28;20282;-70
2022/06/22 06:30:50;;;;;;;;;;;24.70;46.90;;;;;;5046017;28;20051;-70
2022/06/22 06:33:35;;;;;;;;;;;24.70;47.10;;;;;;5043734;28;19905;-70
2022/06/22 06:36:19;;;;;;;;;;;24.60;47.00;;;;;;5044128;28;19944;-70
2022/06/22 06:38:52;;;;;;;;;;;24.60;47.20;;;;;;5044761;28;19913;-71
2022/06/22 06:41:22;;;;;;;;;;;24.60;47.20;;;;;;5045692;28;20307;-70
2022/06/22 06:43:56;;;;;;;;;;;24.70;47.30;;;;;;5044786;28;20289;-73
2022/06/22 06:46:40;;;;;;;;;;;24.70;47.30;;;;;;5049239;28;19916;-72
2022/06/22 06:49:05;;;;;;;;;;;24.70;47.30;;;;;;5054508;28;20347;-70
2022/06/22 06:51:32;;;;;;;;;;;24.60;47.30;;;;;;5048440;28;19962;-72
2022/06/22 06:54:06;;;;;;;;;;;24.70;47.40;;;;;;5035367;28;20402;-73
2022/06/22 06:56:38;;;;;;;;;;;24.60;47.40;;;;;;5035770;28;19921;-71
2022/06/22 06:59:06;;;;;;;;;;;24.60;47.40;;;;;;5033968;28;19909;-67
2022/06/22 07:01:37;;;;;;;;;;;24.60;47.50;;;;;;5035392;28;20299;-69
2022/06/22 07:04:08;;;;;;;;;;;24.60;47.50;;;;;;5035423;28;19964;-69
2022/06/22 07:06:34;;;;;;;;;;;24.60;47.50;;;;;;5035915;28;19909;-70
2022/06/22 07:09:15;;;;;;;;;;;24.50;47.60;;;;;;5034991;28;20343;-73
2022/06/22 07:11:44;;;;;;;;;;;24.50;47.70;;;;;;5045066;28;19909;-71
2022/06/22 07:14:17;;;;;;;;;;;24.50;47.70;;;;;;5032865;28;19912;-71
2022/06/22 07:16:43;;;;;;;;;;;24.50;47.80;;;;;;5034393;28;19909;-71
2022/06/22 07:19:15;;;;;;;;;;;24.60;47.80;;;;;;5034092;28;19909;-71
2022/06/22 07:21:44;;;;;;;;;;;24.60;47.80;;;;;;5033335;28;20283;-71
2022/06/22 07:24:16;;;;;;;;;;;24.70;47.80;;;;;;5044745;28;19912;-72
2022/06/22 07:26:45;;;;;;;;;;;24.70;47.80;;;;;;5044389;28;19913;-72
2022/06/22 07:29:17;;;;;;;;;;;24.70;47.70;;;;;;5041432;28;19936;-73
2022/06/22 07:31:47;;;;;;;;;;;24.80;47.70;;;;;;5045301;28;19987;-72
2022/06/22 07:34:29;;;;;;;;;;;24.80;47.70;;;;;;5042077;28;19915;-72
2022/06/22 07:36:56;;;;;;;;;;;24.80;47.70;;;;;;5042118;28;19909;-71
2022/06/22 07:39:37;;;;;;;;;;;24.90;47.60;;;;;;5042425;28;19913;-72
2022/06/22 07:42:04;;;;;;;;;;;24.80;47.50;;;;;;5044664;28;19927;-70
2022/06/22 07:44:31;;;;;;;;;;;24.90;47.60;;;;;;5044184;28;19909;-74
2022/06/22 07:47:05;;;;;;;;;;;24.90;47.60;;;;;;5042231;28;20279;-72
2022/06/22 07:49:47;;;;;;;;;;;24.90;47.70;;;;;;5035312;28;20237;-75
2022/06/22 07:52:14;;;;;;;;;;;25.00;47.70;;;;;;5034730;28;19948;-74
2022/06/22 07:54:39;;;;;;;;;;;25.00;47.70;;;;;;5040259;28;19920;-75
2022/06/22 07:57:11;;;;;;;;;;;25.10;47.70;;;;;;5054359;28;19932;-77
2022/06/22 07:59:40;;;;;;;;;;;25.30;47.60;;;;;;5050899;28;19909;-74
2022/06/22 08:02:12;;;;;;;;;;;25.40;47.60;;;;;;5044555;28;19915;-73
2022/06/22 08:04:40;;;;;;;;;;;25.50;47.50;;;;;;5044316;28;20004;-74
2022/06/22 08:07:08;;;;;;;;;;;25.60;47.40;;;;;;5041043;28;19978;-70
2022/06/22 08:09:38;;;;;;;;;;;25.70;47.20;;;;;;5037457;28;20376;-70
2022/06/22 08:12:30;;;;;;;;;;;25.70;47.00;;;;;;5033979;28;19905;-70
2022/06/22 08:14:56;;;;;;;;;;;25.70;47.10;;;;;;5034020;28;20011;-71
2022/06/22 08:17:34;;;;;;;;;;;25.60;47.10;;;;;;5032564;28;20359;-69
2022/06/22 08:20:00;;;;;;;;;;;25.50;47.10;;;;;;5033729;28;19999;-69
2022/06/22 08:22:25;;;;;;;;;;;25.40;47.20;;;;;;5033646;28;19999;-69
2022/06/22 08:24:54;;;;;;;;;;;25.40;47.30;;;;;;5033110;28;19958;-71
2022/06/22 08:27:21;;;;;;;;;;;25.40;47.40;;;;;;5032203;28;19974;-70
2022/06/22 08:29:48;;;;;;;;;;;25.50;47.50;;;;;;5033816;28;19991;-69
2022/06/22 08:32:19;;;;;;;;;;;25.50;47.40;;;;;;5034347;28;19916;-69
2022/06/22 08:34:48;;;;;;;;;;;25.50;47.40;;;;;;5034086;28;20362;-69
2022/06/22 08:37:17;;;;;;;;;;;25.60;47.00;;;;;;5034165;28;19905;-70
2022/06/22 08:39:48;;;;;;;;;;;25.60;47.00;;;;;;5034590;28;20377;-69
2022/06/22 08:42:25;;;;;;;;;;;25.50;46.90;;;;;;5033449;28;19905;-70
2022/06/22 08:44:57;;;;;;;;;;;25.50;47.00;;;;;;5034488;28;20287;-70
2022/06/22 08:47:34;;;;;;;;;;;25.50;46.70;;;;;;5034356;28;19909;-71
2022/06/22 08:50:09;;;;;;;;;;;25.60;46.90;;;;;;5034257;28;19909;-70
2022/06/22 08:52:40;;;;;;;;;;;25.60;46.90;;;;;;5034535;28;19945;-70
2022/06/22 08:55:06;;;;;;;;;;;25.70;46.70;;;;;;5033834;28;19927;-70
2022/06/22 08:57:47;;;;;;;;;;;25.70;46.80;;;;;;5034223;28;19909;-69
2022/06/22 09:00:15;;;;;;;;;;;25.80;46.60;;;;;;5034109;28;19905;-69
2022/06/22 09:02:59;;;;;;;;;;;25.80;46.60;;;;;;5034000;28;19932;-69
2022/06/22 09:05:37;;;;;;;;;;;25.80;46.60;;;;;;5034000;28;19905;-69
2022/06/22 09:08:02;;;;;;;;;;;25.80;46.40;;;;;;5034100;28;20363;-70
2022/06/22 09:11:00;;;;;;;;;;;25.90;46.40;;;;;;5033720;28;19912;-70
2022/06/22 09:13:40;;;;;;;;;;;25.90;46.30;;;;;;5043101;28;20263;-70
2022/06/22 09:16:06;;;;;;;;;;;26.00;46.10;;;;;;5033618;28;19935;-70
2022/06/22 09:18:32;;;;;;;;;;;26.00;45.90;;;;;;5032518;28;19996;-70
2022/06/22 09:21:03;;;;;;;;;;;26.00;45.60;;;;;;5033725;28;19905;-70
2022/06/22 09:23:39;;;;;;;;;;;26.00;45.90;;;;;;5032919;28;19912;-70
2022/06/22 09:26:11;;;;;;;;;;;26.00;45.90;;;;;;5033662;28;19986;-70
2022/06/22 09:28:55;;;;;;;;;;;26.00;45.60;;;;;;5033749;28;20399;-70
2022/06/22 09:31:39;;;;;;;;;;;26.00;45.30;;;;;;5033818;28;19905;-70
2022/06/22 09:34:05;;;;;;;;;;;25.90;44.90;;;;;;5033616;28;19905;-69
2022/06/22 09:36:31;;;;;;;;;;;25.80;44.80;;;;;;5033652;28;19913;-70
2022/06/22 09:39:16;;;;;;;;;;;25.60;45.10;;;;;;5036372;28;20259;-69
2022/06/22 09:41:53;;;;;;;;;;;25.40;45.10;;;;;;5037732;28;19905;-69
2022/06/22 09:44:37;;;;;;;;;;;25.30;45.10;;;;;;5037848;28;19909;-70
2022/06/22 09:47:28;;;;;;;;;;;25.20;45.30;;;;;;5037604;28;19959;-70
2022/06/22 09:50:32;;;;;;;;;;;25.10;44.90;;;;;;5035707;28;19905;-68
2022/06/22 09:53:19;;;;;;;;;;;25.10;45.40;;;;;;5055336;28;19912;-69
2022/06/22 09:58:43;;;;;;;;;;;25.10;45.50;;;;;;5040972;28;20370;-68
2022/06/22 10:01:27;;;;;;;;;;;25.30;45.60;;;;;;5036893;28;19931;-68
2022/06/22 10:03:59;;;;;;;;;;;25.40;45.60;;;;;;5037488;28;19951;-69
2022/06/22 10:06:37;;;;;;;;;;;25.50;45.60;;;;;;5037113;28;19905;-69
2022/06/22 10:09:05;;;;;;;;;;;25.60;45.50;;;;;;5036768;28;19913;-68
2022/06/22 10:11:40;;;;;;;;;;;25.80;45.50;;;;;;5037088;28;19912;-68
2022/06/22 10:14:08;;;;;;;;;;;25.90;45.40;;;;;;5035724;28;20275;-68
2022/06/22 10:16:34;;;;;;;;;;;25.90;45.40;;;;;;5036473;28;20335;-69
2022/06/22 10:19:00;;;;;;;;;;;25.90;45.40;;;;;;5036298;28;19996;-69
2022/06/22 10:21:35;;;;;;;;;;;26.00;45.40;;;;;;5036482;28;19905;-70
2022/06/22 10:24:01;;;;;;;;;;;26.00;45.30;;;;;;5036775;28;19905;-69
2022/06/22 10:26:26;;;;;;;;;;;26.10;45.30;;;;;;5037397;28;19905;-70
2022/06/22 10:29:12;;;;;;;;;;;26.10;44.80;;;;;;5037106;28;19924;-69
2022/06/22 10:31:52;;;;;;;;;;;26.20;45.10;;;;;;5045465;28;20366;-69
2022/06/22 10:34:38;;;;;;;;;;;26.20;45.10;;;;;;5035539;28;20282;-69
2022/06/22 10:37:22;;;;;;;;;;;26.20;45.00;;;;;;5036840;28;19905;-70
2022/06/22 10:40:11;;;;;;;;;;;26.20;45.00;;;;;;5036536;28;19944;-70
2022/06/22 10:45:41;;;;;;;;;;;26.30;45.10;;;;;;5036545;28;20310;-70
2022/06/22 10:48:12;;;;;;;;;;;26.30;45.30;;;;;;5036235;28;19905;-72
2022/06/22 10:50:44;;;;;;;;;;;26.40;45.10;;;;;;5034873;28;19920;-70
2022/06/22 10:53:10;;;;;;;;;;;26.50;45.10;;;;;;5036408;28;19905;-70
2022/06/22 10:55:38;;;;;;;;;;;26.50;45.00;;;;;;5034794;28;19919;-69
2022/06/22 10:58:24;;;;;;;;;;;26.40;44.80;;;;;;5035118;28;19905;-69
2022/06/22 11:00:49;;;;;;;;;;;26.20;44.80;;;;;;5024095;28;19905;-70
2022/06/22 11:03:30;;;;;;;;;;;26.10;45.10;;;;;;5035971;28;19912;-71
2022/06/22 11:06:14;;;;;;;;;;;26.00;45.40;;;;;;5035914;28;19905;-69
2022/06/22 11:08:40;;;;;;;;;;;26.00;45.30;;;;;;5041186;28;19956;-69
2022/06/22 11:11:24;;;;;;;;;;;26.00;45.40;;;;;;5054395;28;19927;-69
2022/06/22 11:13:52;;;;;;;;;;;26.00;45.50;;;;;;5056551;28;20409;-70
2022/06/22 11:16:18;;;;;;;;;;;26.00;45.50;;;;;;5055652;28;19913;-69
2022/06/22 11:18:46;;;;;;;;;;;26.10;45.60;;;;;;5055902;28;19911;-69
2022/06/22 11:21:30;;;;;;;;;;;26.10;45.60;;;;;;5055623;28;19909;-69
2022/06/22 11:24:01;;;;;;;;;;;26.20;45.70;;;;;;5055998;28;19955;-69
2022/06/22 11:32:47;;;;;;;;;;;26.30;45.80;;;;;;5055342;28;19912;-69
2022/06/22 11:35:31;;;;;;;;;;;26.40;45.60;;;;;;5054135;28;19916;-70
2022/06/22 11:38:19;;;;;;;;;;;26.40;45.70;;;;;;5055481;28;19950;-68
2022/06/22 11:41:04;;;;;;;;;;;26.40;45.60;;;;;;5054853;28;19912;-69
2022/06/22 11:43:29;;;;;;;;;;;26.50;45.60;;;;;;5055509;28;19912;-68
2022/06/22 11:46:07;;;;;;;;;;;26.60;45.50;;;;;;5055155;28;20258;-70
2022/06/22 11:48:42;;;;;;;;;;;26.60;45.40;;;;;;5055030;28;20369;-68
2022/06/22 11:51:11;;;;;;;;;;;26.60;45.20;;;;;;5054900;28;19905;-68
2022/06/22 11:53:45;;;;;;;;;;;26.70;45.20;;;;;;5054999;28;19912;-68
2022/06/22 11:56:24;;;;;;;;;;;26.60;44.70;;;;;;5055040;28;20274;-69
2022/06/22 11:59:08;;;;;;;;;;;26.50;44.80;;;;;;5055048;28;19911;-69
2022/06/22 12:01:52;;;;;;;;;;;26.50;44.60;;;;;;5052952;28;20357;-69
2022/06/22 12:04:21;;;;;;;;;;;26.40;45.00;;;;;;5054627;28;19912;-69
2022/06/22 12:07:00;;;;;;;;;;;26.30;44.70;;;;;;5054657;28;20332;-69
2022/06/22 12:09:41;;;;;;;;;;;26.20;44.90;;;;;;5053421;28;19956;-70
2022/06/22 12:12:26;;;;;;;;;;;26.00;44.70;;;;;;5053684;28;19974;-68
2022/06/22 12:15:10;;;;;;;;;;;25.80;43.90;;;;;;5054463;28;20273;-69
2022/06/22 12:17:51;;;;;;;;;;;25.60;45.00;;;;;;5054674;28;19908;-69
2022/06/22 12:20:25;;;;;;;;;;;25.40;45.40;;;;;;5054574;28;19943;-68
2022/06/22 12:23:13;;;;;;;;;;;25.30;45.70;;;;;;5054880;28;19944;-68
2022/06/22 12:25:57;;;;;;;;;;;25.30;45.90;;;;;;5054512;28;20284;-68
2022/06/22 12:28:43;;;;;;;;;;;25.30;46.00;;;;;;5053959;28;19927;-69
2022/06/22 12:31:12;;;;;;;;;;;25.30;46.10;;;;;;5054461;28;20367;-70
2022/06/22 12:33:41;;;;;;;;;;;25.30;46.10;;;;;;5054566;28;19911;-69
2022/06/22 12:36:29;;;;;;;;;;;25.40;46.10;;;;;;5054671;28;19935;-70
2022/06/22 12:38:57;;;;;;;;;;;25.40;46.10;;;;;;5054109;28;19952;-70
2022/06/22 12:41:45;;;;;;;;;;;25.50;46.10;;;;;;5054472;28;19909;-69
2022/06/22 12:44:29;;;;;;;;;;;25.50;46.00;;;;;;5052426;28;19997;-69
2022/06/22 12:47:06;;;;;;;;;;;25.60;46.00;;;;;;5054125;28;19908;-70
2022/06/22 12:49:41;;;;;;;;;;;25.70;46.00;;;;;;5053961;28;19920;-69
2022/06/22 12:52:10;;;;;;;;;;;25.80;46.00;;;;;;5052948;28;20413;-70
2022/06/22 12:54:44;;;;;;;;;;;25.80;45.80;;;;;;5054192;28;20367;-69
2022/06/22 12:57:13;;;;;;;;;;;25.90;45.80;;;;;;5054161;28;20016;-69
2022/06/22 12:59:44;;;;;;;;;;;25.90;45.70;;;;;;5053978;28;19904;-68
2022/06/22 13:02:13;;;;;;;;;;;26.00;45.60;;;;;;5053815;28;19931;-69
2022/06/22 13:04:41;;;;;;;;;;;26.10;45.60;;;;;;5053819;28;19948;-69
2022/06/22 13:07:10;;;;;;;;;;;26.10;45.70;;;;;;5052715;28;20362;-69
2022/06/22 13:09:36;;;;;;;;;;;26.20;45.60;;;;;;5052397;28;19909;-69
2022/06/22 13:12:10;;;;;;;;;;;26.30;45.50;;;;;;5051419;28;19962;-69
2022/06/22 13:14:55;;;;;;;;;;;26.40;45.30;;;;;;5053857;28;19963;-70
2022/06/22 13:17:30;;;;;;;;;;;26.50;45.00;;;;;;5053132;28;20259;-69
2022/06/22 13:19:55;;;;;;;;;;;26.60;44.90;;;;;;5052957;28;19931;-68
2022/06/22 13:22:37;;;;;;;;;;;26.70;44.10;;;;;;5053487;28;19909;-71
2022/06/22 13:25:02;;;;;;;;;;;26.80;44.70;;;;;;5052427;28;20007;-70
2022/06/22 13:27:46;;;;;;;;;;;27.00;44.30;;;;;;5053476;28;20398;-69
2022/06/22 13:30:22;;;;;;;;;;;27.00;43.50;;;;;;5053607;28;20363;-68
2022/06/22 13:33:02;;;;;;;;;;;27.00;43.80;;;;;;5053415;28;19943;-69
2022/06/22 13:35:39;;;;;;;;;;;27.00;43.70;;;;;;5053443;28;19966;-68
2022/06/22 13:38:21;;;;;;;;;;;27.00;44.00;;;;;;5053711;28;19927;-68
2022/06/22 13:41:05;;;;;;;;;;;27.00;44.00;;;;;;5053586;28;19904;-69
2022/06/22 13:43:57;;;;;;;;;;;27.10;44.00;;;;;;5053340;28;19905;-71
2022/06/22 13:46:40;;;;;;;;;;;27.10;43.90;;;;;;5052400;28;20327;-69
2022/06/22 13:49:18;;;;;;;;;;;27.20;43.90;;;;;;5053363;28;19927;-69
2022/06/22 13:51:53;;;;;;;;;;;27.10;43.90;;;;;;5053485;28;19905;-70
2022/06/22 13:54:26;;;;;;;;;;;27.20;43.90;;;;;;5053326;28;19904;-70
2022/06/22 13:57:09;;;;;;;;;;;27.20;44.00;;;;;;5053408;28;19990;-70
2022/06/22 13:59:34;;;;;;;;;;;27.30;44.20;;;;;;5053604;28;20357;-69
2022/06/22 14:02:15;;;;;;;;;;;27.60;44.30;;;;;;5053244;28;19904;-71
2022/06/22 14:04:46;;;;;;;;;;;27.80;44.10;;;;;;5053259;28;19916;-69
2022/06/22 14:07:25;;;;;;;;;;;28.00;44.10;;;;;;5053045;28;19905;-69
2022/06/22 14:10:00;;;;;;;;;;;28.40;44.40;;;;;;5052005;28;20347;-68
2022/06/22 14:12:37;;;;;;;;;;;29.10;43.60;;;;;;5051987;28;19905;-69
2022/06/22 14:15:06;;;;;;;;;;;29.70;43.20;;;;;;5053186;28;20289;-69
2022/06/22 14:17:53;;;;;;;;;;;30.20;43.30;;;;;;5053273;28;19905;-68
2022/06/22 14:20:25;;;;;;;;;;;30.70;43.40;;;;;;5051892;28;19904;-69
2022/06/22 14:22:54;;;;;;;;;;;31.30;42.00;;;;;;5053540;28;20309;-70
2022/06/22 14:25:31;;;;;;;;;;;31.90;40.90;;;;;;5056375;28;19909;-69
2022/06/22 14:28:06;;;;;;;;;;;32.50;41.10;;;;;;5055224;28;19960;-70
2022/06/22 14:30:51;;;;;;;;;;;33.20;41.10;;;;;;5056905;28;19905;-69
2022/06/22 14:33:23;;;;;;;;;;;33.90;40.20;;;;;;5055146;28;19931;-70
2022/06/22 14:36:00;;;;;;;;;;;34.70;40.90;;;;;;5056111;28;19912;-70
2022/06/22 14:38:26;;;;;;;;;;;35.40;41.20;;;;;;5056661;28;19951;-70
2022/06/22 14:41:04;;;;;;;;;;;36.10;40.80;;;;;;5056237;28;20078;-70
2022/06/22 14:43:36;;;;;;;;;;;36.70;39.40;;;;;;5056048;28;19905;-70
2022/06/22 14:46:05;;;;;;;;;;;37.30;40.20;;;;;;5054720;28;19909;-70
2022/06/22 14:48:33;;;;;;;;;;;37.80;38.30;;;;;;5056360;28;20357;-70
2022/06/22 14:51:08;;;;;;;;;;;38.00;38.10;;;;;;5054805;28;20016;-70
2022/06/22 14:53:52;;;;;;;;;;;38.20;39.50;;;;;;5056072;28;19904;-70
2022/06/22 14:56:24;;;;;;;;;;;38.30;39.60;;;;;;5055934;28;19960;-71
2022/06/22 14:59:08;;;;;;;;;;;38.30;38.70;;;;;;5056481;28;19959;-69
2022/06/22 15:01:59;;;;;;;;;;;38.20;37.20;;;;;;5055852;28;19904;-69
2022/06/22 15:04:32;;;;;;;;;;;38.20;39.50;;;;;;5054806;28;19905;-70
2022/06/22 15:07:04;;;;;;;;;;;38.00;38.30;;;;;;5055831;28;19905;-70
2022/06/22 15:09:35;;;;;;;;;;;37.90;38.10;;;;;;5054728;28;19905;-70